sensor_id;sensor_type;location;lat;lon;timestamp;pressure;altitude;pressure_sealevel;temperature;humidity
51333;BME280;37417;48.118;11.734;2023-07-16T00:01:29;95148.84;;;22.96;99.17
51333;BME280;37417;48.118;11.734;2023-07-16T00:04:15;95157.75;;;22.87;100.00
51333;BME280;37417;48.118;11.734;2023-07-16T00:07:00;95149.22;;;22.80;100.00
51333;BME280;37417;48.118;11.734;2023-07-16T00:09:47;95146.69;;;22.69;100.00
51333;BME280;37417;48.118;11.734;2023-07-16T00:12:33;95144.41;;;22.53;100.00
51333;BME280;37417;48.118;11.734;2023-07-16T00:15:18;95155.44;;;22.36;100.00
51333;BME280;37417;48.118;11.734;2023-07-16T00:18:04;95158.25;;;22.15;100.00
51333;BME280;37417;48.118;11.734;2023-07-16T00:20:51;95165.13;;;22.16;100.00
51333;BME280;37417;48.118;11.734;2023-07-16T00:23:36;95175.75;;;22.16;100.00
51333;BME280;37417;48.118;11.734;2023-07-16T00:26:22;95181.47;;;21.79;100.00
51333;BME280;37417;48.118;11.734;2023-07-16T00:29:09;95196.66;;;21.63;100.00
51333;BME280;37417;48.118;11.734;2023-07-16T00:31:54;95199.88;;;21.60;100.00
51333;BME280;37417;48.118;11.734;2023-07-16T00:34:40;95195.41;;;21.41;100.00
51333;BME280;37417;48.118;11.734;2023-07-16T00:37:26;95200.47;;;21.22;100.00
51333;BME280;37417;48.118;11.734;2023-07-16T00:40:11;95212.94;;;21.21;100.00
51333;BME280;37417;48.118;11.734;2023-07-16T00:42:57;95226.19;;;21.16;100.00
51333;BME280;37417;48.118;11.734;2023-07-16T00:45:45;95237.06;;;21.20;100.00
51333;BME280;37417;48.118;11.734;2023-07-16T00:48:31;95251.41;;;21.14;100.00
51333;BME280;37417;48.118;11.734;2023-07-16T00:51:18;95246.38;;;21.07;100.00
51333;BME280;37417;48.118;11.734;2023-07-16T00:54:04;95259.91;;;21.00;100.00
51333;BME280;37417;48.118;11.734;2023-07-16T00:56:50;95272.63;;;20.88;100.00
51333;BME280;37417;48.118;11.734;2023-07-16T00:59:35;95292.72;;;20.69;100.00
51333;BME280;37417;48.118;11.734;2023-07-16T01:02:21;95314.47;;;20.76;100.00
51333;BME280;37417;48.118;11.734;2023-07-16T01:05:07;95334.91;;;20.75;100.00
51333;BME280;37417;48.118;11.734;2023-07-16T01:08:00;95373.06;;;20.85;100.00
51333;BME280;37417;48.118;11.734;2023-07-16T01:10:47;95372.81;;;20.91;100.00
51333;BME280;37417;48.118;11.734;2023-07-16T01:13:35;95372.06;;;21.01;100.00
51333;BME280;37417;48.118;11.734;2023-07-16T01:16:23;95388.72;;;20.86;100.00
51333;BME280;37417;48.118;11.734;2023-07-16T01:19:09;95389.81;;;21.05;100.00
51333;BME280;37417;48.118;11.734;2023-07-16T01:22:22;95399.63;;;21.05;100.00
51333;BME280;37417;48.118;11.734;2023-07-16T01:31:50;95418.50;;;21.14;100.00
51333;BME280;37417;48.118;11.734;2023-07-16T01:34:38;95421.13;;;21.08;100.00
51333;BME280;37417;48.118;11.734;2023-07-16T01:37:24;95440.22;;;21.05;100.00
51333;BME280;37417;48.118;11.734;2023-07-16T01:40:09;95450.28;;;21.03;100.00
51333;BME280;37417;48.118;11.734;2023-07-16T01:42:56;95457.97;;;20.95;100.00
51333;BME280;37417;48.118;11.734;2023-07-16T01:45:42;95462.97;;;20.91;100.00
51333;BME280;37417;48.118;11.734;2023-07-16T01:48:33;95472.25;;;20.89;100.00
51333;BME280;37417;48.118;11.734;2023-07-16T01:51:19;95471.38;;;20.73;100.00
51333;BME280;37417;48.118;11.734;2023-07-16T01:54:05;95478.88;;;20.81;100.00
51333;BME280;37417;48.118;11.734;2023-07-16T01:56:51;95483.38;;;20.80;100.00
51333;BME280;37417;48.118;11.734;2023-07-16T01:59:36;95478.63;;;20.88;100.00
51333;BME280;37417;48.118;11.734;2023-07-16T02:02:22;95483.91;;;20.82;100.00
51333;BME280;37417;48.118;11.734;2023-07-16T02:05:08;95485.22;;;20.85;100.00
51333;BME280;37417;48.118;11.734;2023-07-16T02:07:53;95487.59;;;20.81;100.00
51333;BME280;37417;48.118;11.734;2023-07-16T02:10:39;95484.16;;;20.81;100.00
51333;BME280;37417;48.118;11.734;2023-07-16T02:13:25;95495.88;;;20.95;100.00
51333;BME280;37417;48.118;11.734;2023-07-16T02:16:11;95488.75;;;21.01;100.00
51333;BME280;37417;48.118;11.734;2023-07-16T02:18:56;95493.44;;;20.83;100.00
51333;BME280;37417;48.118;11.734;2023-07-16T02:21:42;95508.59;;;20.88;100.00
51333;BME280;37417;48.118;11.734;2023-07-16T02:24:28;95505.72;;;21.00;100.00
51333;BME280;37417;48.118;11.734;2023-07-16T02:27:13;95503.28;;;20.88;100.00
51333;BME280;37417;48.118;11.734;2023-07-16T02:29:59;95516.56;;;20.93;100.00
51333;BME280;37417;48.118;11.734;2023-07-16T02:32:45;95508.63;;;20.98;100.00
51333;BME280;37417;48.118;11.734;2023-07-16T02:35:30;95513.91;;;20.98;100.00
51333;BME280;37417;48.118;11.734;2023-07-16T02:38:16;95515.22;;;20.91;100.00
51333;BME280;37417;48.118;11.734;2023-07-16T02:41:01;95514.66;;;20.83;100.00
51333;BME280;37417;48.118;11.734;2023-07-16T02:43:47;95513.09;;;20.88;100.00
51333;BME280;37417;48.118;11.734;2023-07-16T02:46:33;95522.34;;;20.85;100.00
51333;BME280;37417;48.118;11.734;2023-07-16T02:49:19;95536.19;;;20.97;100.00
51333;BME280;37417;48.118;11.734;2023-07-16T02:52:06;95536.16;;;20.92;100.00
51333;BME280;37417;48.118;11.734;2023-07-16T02:54:52;95546.31;;;21.10;100.00
51333;BME280;37417;48.118;11.734;2023-07-16T02:57:37;95546.09;;;21.17;100.00
51333;BME280;37417;48.118;11.734;2023-07-16T03:00:23;95546.72;;;21.34;100.00
51333;BME280;37417;48.118;11.734;2023-07-16T03:03:09;95536.41;;;21.48;100.00
51333;BME280;37417;48.118;11.734;2023-07-16T03:05:54;95530.25;;;21.38;100.00
51333;BME280;37417;48.118;11.734;2023-07-16T03:08:40;95518.66;;;21.54;100.00
51333;BME280;37417;48.118;11.734;2023-07-16T03:11:26;95527.41;;;21.59;100.00
51333;BME280;37417;48.118;11.734;2023-07-16T03:14:11;95526.63;;;21.74;100.00
51333;BME280;37417;48.118;11.734;2023-07-16T03:16:57;95527.44;;;21.65;100.00
51333;BME280;37417;48.118;11.734;2023-07-16T03:19:42;95534.34;;;21.71;100.00
51333;BME280;37417;48.118;11.734;2023-07-16T03:22:28;95522.13;;;21.75;100.00
51333;BME280;37417;48.118;11.734;2023-07-16T03:25:14;95517.34;;;21.72;100.00
51333;BME280;37417;48.118;11.734;2023-07-16T03:27:59;95508.59;;;21.71;100.00
51333;BME280;37417;48.118;11.734;2023-07-16T03:30:49;95528.22;;;21.75;100.00
51333;BME280;37417;48.118;11.734;2023-07-16T03:33:35;95523.44;;;21.67;100.00
51333;BME280;37417;48.118;11.734;2023-07-16T03:36:22;95525.84;;;21.69;100.00
51333;BME280;37417;48.118;11.734;2023-07-16T03:39:08;95531.69;;;21.66;100.00
51333;BME280;37417;48.118;11.734;2023-07-16T03:41:53;95541.97;;;21.42;100.00
51333;BME280;37417;48.118;11.734;2023-07-16T03:44:39;95542.41;;;21.23;100.00
51333;BME280;37417;48.118;11.734;2023-07-16T03:47:24;95546.38;;;21.21;100.00
51333;BME280;37417;48.118;11.734;2023-07-16T03:50:10;95556.31;;;21.41;100.00
51333;BME280;37417;48.118;11.734;2023-07-16T03:52:56;95561.06;;;21.44;100.00
51333;BME280;37417;48.118;11.734;2023-07-16T03:55:42;95557.19;;;21.09;100.00
51333;BME280;37417;48.118;11.734;2023-07-16T03:58:27;95553.38;;;20.47;100.00
51333;BME280;37417;48.118;11.734;2023-07-16T04:01:14;95570.75;;;20.33;100.00
51333;BME280;37417;48.118;11.734;2023-07-16T04:04:00;95572.19;;;20.14;100.00
51333;BME280;37417;48.118;11.734;2023-07-16T04:06:46;95579.25;;;20.03;100.00
51333;BME280;37417;48.118;11.734;2023-07-16T04:09:31;95601.53;;;19.80;100.00
51333;BME280;37417;48.118;11.734;2023-07-16T04:12:17;95607.81;;;19.74;100.00
51333;BME280;37417;48.118;11.734;2023-07-16T04:15:07;95596.91;;;19.70;100.00
51333;BME280;37417;48.118;11.734;2023-07-16T04:17:53;95606.47;;;19.71;100.00
51333;BME280;37417;48.118;11.734;2023-07-16T04:20:39;95601.03;;;19.83;100.00
51333;BME280;37417;48.118;11.734;2023-07-16T04:23:25;95591.28;;;19.89;100.00
51333;BME280;37417;48.118;11.734;2023-07-16T04:26:10;95593.53;;;20.02;100.00
51333;BME280;37417;48.118;11.734;2023-07-16T04:28:56;95595.16;;;20.08;100.00
51333;BME280;37417;48.118;11.734;2023-07-16T04:31:42;95601.84;;;20.11;100.00
51333;BME280;37417;48.118;11.734;2023-07-16T04:34:27;95629.59;;;20.08;100.00
51333;BME280;37417;48.118;11.734;2023-07-16T04:37:13;95646.53;;;19.80;100.00
51333;BME280;37417;48.118;11.734;2023-07-16T04:39:59;95662.94;;;19.82;100.00
51333;BME280;37417;48.118;11.734;2023-07-16T04:42:44;95663.34;;;19.69;100.00
51333;BME280;37417;48.118;11.734;2023-07-16T04:45:30;95709.41;;;18.33;100.00
51333;BME280;37417;48.118;11.734;2023-07-16T04:48:16;95733.75;;;18.35;100.00
51333;BME280;37417;48.118;11.734;2023-07-16T04:51:01;95761.94;;;18.47;100.00
51333;BME280;37417;48.118;11.734;2023-07-16T04:53:47;95773.63;;;18.51;100.00
51333;BME280;37417;48.118;11.734;2023-07-16T04:56:33;95789.34;;;18.57;100.00
51333;BME280;37417;48.118;11.734;2023-07-16T04:59:19;95801.59;;;18.63;100.00
51333;BME280;37417;48.118;11.734;2023-07-16T05:02:06;95819.88;;;18.36;100.00
51333;BME280;37417;48.118;11.734;2023-07-16T05:04:52;95818.25;;;18.35;100.00
51333;BME280;37417;48.118;11.734;2023-07-16T05:07:37;95822.59;;;18.41;100.00
51333;BME280;37417;48.118;11.734;2023-07-16T05:10:23;95837.41;;;18.43;100.00
51333;BME280;37417;48.118;11.734;2023-07-16T05:13:09;95839.28;;;18.30;100.00
51333;BME280;37417;48.118;11.734;2023-07-16T05:15:54;95835.34;;;18.45;100.00
51333;BME280;37417;48.118;11.734;2023-07-16T05:18:40;95836.50;;;18.65;100.00
51333;BME280;37417;48.118;11.734;2023-07-16T05:21:26;95817.06;;;18.83;100.00
51333;BME280;37417;48.118;11.734;2023-07-16T05:24:11;95814.72;;;18.87;100.00
51333;BME280;37417;48.118;11.734;2023-07-16T05:26:57;95818.03;;;18.94;100.00
51333;BME280;37417;48.118;11.734;2023-07-16T05:29:43;95815.56;;;18.87;100.00
51333;BME280;37417;48.118;11.734;2023-07-16T05:32:28;95822.13;;;19.02;100.00
51333;BME280;37417;48.118;11.734;2023-07-16T05:35:14;95832.38;;;19.32;100.00
51333;BME280;37417;48.118;11.734;2023-07-16T05:38:00;95838.22;;;19.51;100.00
51333;BME280;37417;48.118;11.734;2023-07-16T05:40:45;95837.44;;;19.50;100.00
51333;BME280;37417;48.118;11.734;2023-07-16T05:43:31;95812.44;;;19.24;100.00
51333;BME280;37417;48.118;11.734;2023-07-16T05:46:17;95815.56;;;19.38;100.00
51333;BME280;37417;48.118;11.734;2023-07-16T05:49:03;95817.31;;;19.49;100.00
51333;BME280;37417;48.118;11.734;2023-07-16T05:51:48;95809.94;;;19.17;100.00
51333;BME280;37417;48.118;11.734;2023-07-16T05:54:34;95813.88;;;19.15;100.00
51333;BME280;37417;48.118;11.734;2023-07-16T05:57:20;95816.84;;;19.02;100.00
51333;BME280;37417;48.118;11.734;2023-07-16T06:00:06;95824.44;;;18.98;100.00
51333;BME280;37417;48.118;11.734;2023-07-16T06:02:52;95830.16;;;19.07;100.00
51333;BME280;37417;48.118;11.734;2023-07-16T06:05:38;95827.69;;;19.34;100.00
51333;BME280;37417;48.118;11.734;2023-07-16T06:08:23;95839.13;;;19.56;100.00
51333;BME280;37417;48.118;11.734;2023-07-16T06:11:10;95838.00;;;19.69;100.00
51333;BME280;37417;48.118;11.734;2023-07-16T06:13:56;95824.56;;;19.92;100.00
51333;BME280;37417;48.118;11.734;2023-07-16T06:16:42;95823.31;;;20.17;100.00
51333;BME280;37417;48.118;11.734;2023-07-16T06:19:28;95822.09;;;20.46;100.00
51333;BME280;37417;48.118;11.734;2023-07-16T06:22:13;95819.81;;;20.82;100.00
51333;BME280;37417;48.118;11.734;2023-07-16T06:24:59;95797.13;;;20.96;100.00
51333;BME280;37417;48.118;11.734;2023-07-16T06:27:45;95779.03;;;21.20;100.00
51333;BME280;37417;48.118;11.734;2023-07-16T06:30:30;95773.28;;;20.96;100.00
51333;BME280;37417;48.118;11.734;2023-07-16T06:33:18;95778.63;;;21.33;100.00
51333;BME280;37417;48.118;11.734;2023-07-16T06:36:04;95767.34;;;21.53;100.00
51333;BME280;37417;48.118;11.734;2023-07-16T06:38:49;95753.72;;;22.55;100.00
51333;BME280;37417;48.118;11.734;2023-07-16T06:41:35;95714.38;;;23.18;100.00
51333;BME280;37417;48.118;11.734;2023-07-16T06:44:22;95699.47;;;24.17;100.00
51333;BME280;37417;48.118;11.734;2023-07-16T06:47:08;95687.13;;;23.77;100.00
51333;BME280;37417;48.118;11.734;2023-07-16T06:49:53;95697.63;;;22.82;100.00
51333;BME280;37417;48.118;11.734;2023-07-16T06:52:39;95703.72;;;22.72;100.00
51333;BME280;37417;48.118;11.734;2023-07-16T06:55:25;95705.06;;;22.80;100.00
51333;BME280;37417;48.118;11.734;2023-07-16T06:58:13;95717.28;;;22.65;100.00
51333;BME280;37417;48.118;11.734;2023-07-16T07:01:00;95707.47;;;22.91;100.00
51333;BME280;37417;48.118;11.734;2023-07-16T07:03:45;95702.34;;;23.61;100.00
51333;BME280;37417;48.118;11.734;2023-07-16T07:06:31;95691.97;;;24.19;100.00
51333;BME280;37417;48.118;11.734;2023-07-16T07:09:17;95700.50;;;23.36;100.00
51333;BME280;37417;48.118;11.734;2023-07-16T07:12:03;95692.06;;;24.04;100.00
51333;BME280;37417;48.118;11.734;2023-07-16T07:14:49;95695.38;;;24.35;100.00
51333;BME280;37417;48.118;11.734;2023-07-16T07:17:34;95688.66;;;23.88;100.00
51333;BME280;37417;48.118;11.734;2023-07-16T07:20:20;95691.53;;;24.02;100.00
51333;BME280;37417;48.118;11.734;2023-07-16T07:23:06;95688.69;;;24.32;100.00
51333;BME280;37417;48.118;11.734;2023-07-16T07:25:52;95693.44;;;23.96;100.00
51333;BME280;37417;48.118;11.734;2023-07-16T07:28:38;95695.97;;;23.47;100.00
51333;BME280;37417;48.118;11.734;2023-07-16T07:31:24;95695.69;;;23.54;100.00
51333;BME280;37417;48.118;11.734;2023-07-16T07:34:09;95682.38;;;24.23;100.00
51333;BME280;37417;48.118;11.734;2023-07-16T07:36:55;95671.28;;;24.50;100.00
51333;BME280;37417;48.118;11.734;2023-07-16T07:39:41;95674.50;;;24.47;100.00
51333;BME280;37417;48.118;11.734;2023-07-16T07:42:26;95674.66;;;24.17;100.00
51333;BME280;37417;48.118;11.734;2023-07-16T07:45:12;95669.22;;;23.88;100.00
51333;BME280;37417;48.118;11.734;2023-07-16T07:47:58;95660.38;;;23.97;100.00
51333;BME280;37417;48.118;11.734;2023-07-16T07:50:46;95671.53;;;24.54;100.00
51333;BME280;37417;48.118;11.734;2023-07-16T07:53:31;95660.41;;;23.92;100.00
51333;BME280;37417;48.118;11.734;2023-07-16T07:56:17;95666.63;;;23.67;100.00
51333;BME280;37417;48.118;11.734;2023-07-16T07:59:04;95672.13;;;23.01;100.00
51333;BME280;37417;48.118;11.734;2023-07-16T08:01:49;95664.41;;;23.00;100.00
51333;BME280;37417;48.118;11.734;2023-07-16T08:04:35;95671.84;;;23.13;100.00
51333;BME280;37417;48.118;11.734;2023-07-16T08:07:22;95664.66;;;22.57;100.00
51333;BME280;37417;48.118;11.734;2023-07-16T08:10:08;95659.31;;;22.83;100.00
51333;BME280;37417;48.118;11.734;2023-07-16T08:12:53;95659.84;;;23.10;100.00
51333;BME280;37417;48.118;11.734;2023-07-16T08:15:39;95664.63;;;22.73;100.00
51333;BME280;37417;48.118;11.734;2023-07-16T08:18:25;95657.34;;;23.55;100.00
51333;BME280;37417;48.118;11.734;2023-07-16T08:21:10;95660.13;;;23.14;100.00
51333;BME280;37417;48.118;11.734;2023-07-16T08:24:01;95650.03;;;23.91;100.00
51333;BME280;37417;48.118;11.734;2023-07-16T08:26:47;95641.94;;;24.06;100.00
51333;BME280;37417;48.118;11.734;2023-07-16T08:29:35;95632.75;;;24.96;97.00
51333;BME280;37417;48.118;11.734;2023-07-16T08:32:21;95641.31;;;24.64;98.37
51333;BME280;37417;48.118;11.734;2023-07-16T08:35:08;95633.97;;;24.79;95.62
51333;BME280;37417;48.118;11.734;2023-07-16T08:37:57;95624.84;;;26.24;95.00
51333;BME280;37417;48.118;11.734;2023-07-16T08:40:47;95629.94;;;27.23;86.07
51333;BME280;37417;48.118;11.734;2023-07-16T08:43:33;95627.44;;;28.10;80.13
51333;BME280;37417;48.118;11.734;2023-07-16T08:46:19;95626.38;;;26.30;83.12
51333;BME280;37417;48.118;11.734;2023-07-16T08:49:07;95635.41;;;28.37;70.08
51333;BME280;37417;48.118;11.734;2023-07-16T08:51:54;95628.66;;;27.62;74.67
51333;BME280;37417;48.118;11.734;2023-07-16T08:54:39;95618.03;;;30.07;60.72
51333;BME280;37417;48.118;11.734;2023-07-16T08:57:26;95618.72;;;28.63;58.75
51333;BME280;37417;48.118;11.734;2023-07-16T09:00:13;95619.94;;;26.83;67.75
51333;BME280;37417;48.118;11.734;2023-07-16T09:03:00;95621.13;;;28.14;66.35
51333;BME280;37417;48.118;11.734;2023-07-16T09:05:46;95630.19;;;28.54;63.84
51333;BME280;37417;48.118;11.734;2023-07-16T09:08:32;95625.22;;;32.46;52.15
51333;BME280;37417;48.118;11.734;2023-07-16T09:11:17;95622.34;;;32.64;45.26
51333;BME280;37417;48.118;11.734;2023-07-16T09:14:06;95629.06;;;29.80;51.93
51333;BME280;37417;48.118;11.734;2023-07-16T09:16:53;95626.72;;;29.38;55.47
51333;BME280;37417;48.118;11.734;2023-07-16T09:19:38;95624.78;;;29.30;55.00
51333;BME280;37417;48.118;11.734;2023-07-16T09:22:24;95621.47;;;28.49;58.97
51333;BME280;37417;48.118;11.734;2023-07-16T09:25:10;95611.19;;;29.27;56.57
51333;BME280;37417;48.118;11.734;2023-07-16T09:28:02;95602.13;;;31.18;52.78
51333;BME280;37417;48.118;11.734;2023-07-16T09:30:50;95597.97;;;31.30;48.43
51333;BME280;37417;48.118;11.734;2023-07-16T09:33:35;95612.50;;;29.95;48.12
51333;BME280;37417;48.118;11.734;2023-07-16T09:36:25;95607.31;;;30.59;49.91
51333;BME280;37417;48.118;11.734;2023-07-16T09:39:11;95596.19;;;33.22;44.66
51333;BME280;37417;48.118;11.734;2023-07-16T09:41:57;95587.41;;;33.61;42.27
51333;BME280;37417;48.118;11.734;2023-07-16T09:44:44;95585.19;;;31.09;46.14
51333;BME280;37417;48.118;11.734;2023-07-16T09:47:29;95596.34;;;30.64;49.40
51333;BME280;37417;48.118;11.734;2023-07-16T09:50:15;95583.75;;;31.12;50.01
51333;BME280;37417;48.118;11.734;2023-07-16T09:53:03;95581.38;;;31.10;48.91
51333;BME280;37417;48.118;11.734;2023-07-16T09:55:50;95587.53;;;30.72;49.27
51333;BME280;37417;48.118;11.734;2023-07-16T09:58:38;95582.56;;;29.88;50.14
51333;BME280;37417;48.118;11.734;2023-07-16T10:01:24;95571.03;;;29.79;51.77
51333;BME280;37417;48.118;11.734;2023-07-16T10:04:14;95575.75;;;28.63;56.68
51333;BME280;37417;48.118;11.734;2023-07-16T10:07:00;95570.38;;;29.82;55.98
51333;BME280;37417;48.118;11.734;2023-07-16T10:09:56;95565.69;;;29.96;56.62
51333;BME280;37417;48.118;11.734;2023-07-16T10:12:43;95566.25;;;29.58;53.55
51333;BME280;37417;48.118;11.734;2023-07-16T10:15:29;95572.97;;;30.39;53.33
51333;BME280;37417;48.118;11.734;2023-07-16T10:18:23;95569.34;;;30.35;52.84
51333;BME280;37417;48.118;11.734;2023-07-16T10:21:09;95566.94;;;29.90;54.41
51333;BME280;37417;48.118;11.734;2023-07-16T10:23:58;95563.50;;;30.15;54.83
51333;BME280;37417;48.118;11.734;2023-07-16T10:26:45;95568.31;;;30.83;53.72
51333;BME280;37417;48.118;11.734;2023-07-16T10:29:30;95563.22;;;30.98;52.26
51333;BME280;37417;48.118;11.734;2023-07-16T10:32:16;95580.25;;;30.30;50.53
51333;BME280;37417;48.118;11.734;2023-07-16T10:35:04;95560.53;;;30.90;50.32
51333;BME280;37417;48.118;11.734;2023-07-16T10:37:50;95561.44;;;31.41;50.10
51333;BME280;37417;48.118;11.734;2023-07-16T10:40:40;95562.63;;;31.22;49.21
51333;BME280;37417;48.118;11.734;2023-07-16T10:43:26;95563.66;;;33.30;45.53
51333;BME280;37417;48.118;11.734;2023-07-16T10:46:12;95547.53;;;35.93;39.82
51333;BME280;37417;48.118;11.734;2023-07-16T10:48:58;95553.03;;;36.74;38.09
51333;BME280;37417;48.118;11.734;2023-07-16T10:51:44;95545.38;;;37.03;36.11
51333;BME280;37417;48.118;11.734;2023-07-16T10:54:29;95540.97;;;35.27;37.47
51333;BME280;37417;48.118;11.734;2023-07-16T10:57:15;95545.59;;;33.10;41.54
51333;BME280;37417;48.118;11.734;2023-07-16T11:00:02;95543.03;;;33.26;42.82
51333;BME280;37417;48.118;11.734;2023-07-16T11:02:52;95549.22;;;34.71;40.01
51333;BME280;37417;48.118;11.734;2023-07-16T11:05:38;95547.19;;;34.96;39.07
51333;BME280;37417;48.118;11.734;2023-07-16T11:08:24;95545.25;;;34.97;40.02
51333;BME280;37417;48.118;11.734;2023-07-16T11:11:10;95543.09;;;34.03;39.91
51333;BME280;37417;48.118;11.734;2023-07-16T11:13:56;95538.63;;;33.58;41.95
51333;BME280;37417;48.118;11.734;2023-07-16T11:16:41;95541.78;;;33.35;42.51
51333;BME280;37417;48.118;11.734;2023-07-16T11:19:27;95544.25;;;33.04;42.70
51333;BME280;37417;48.118;11.734;2023-07-16T11:22:13;95549.84;;;30.38;45.78
51333;BME280;37417;48.118;11.734;2023-07-16T11:24:59;95540.66;;;31.71;46.06
51333;BME280;37417;48.118;11.734;2023-07-16T11:27:45;95546.25;;;32.49;44.97
51333;BME280;37417;48.118;11.734;2023-07-16T11:30:31;95535.69;;;33.38;42.58
51333;BME280;37417;48.118;11.734;2023-07-16T11:33:17;95533.13;;;34.63;41.84
51333;BME280;37417;48.118;11.734;2023-07-16T11:36:03;95512.38;;;36.58;36.80
51333;BME280;37417;48.118;11.734;2023-07-16T11:38:49;95513.88;;;39.16;34.69
51333;BME280;37417;48.118;11.734;2023-07-16T11:41:35;95511.28;;;39.34;32.41
51333;BME280;37417;48.118;11.734;2023-07-16T11:44:21;95508.88;;;38.40;33.37
51333;BME280;37417;48.118;11.734;2023-07-16T11:47:06;95505.97;;;37.39;32.96
51333;BME280;37417;48.118;11.734;2023-07-16T11:49:52;95519.81;;;36.23;36.14
51333;BME280;37417;48.118;11.734;2023-07-16T11:52:39;95527.59;;;36.05;36.14
51333;BME280;37417;48.118;11.734;2023-07-16T11:55:25;95525.34;;;36.26;37.45
51333;BME280;37417;48.118;11.734;2023-07-16T11:58:11;95513.44;;;36.54;35.98
51333;BME280;37417;48.118;11.734;2023-07-16T12:00:56;95504.38;;;37.91;34.89
51333;BME280;37417;48.118;11.734;2023-07-16T12:03:42;95500.16;;;36.29;33.56
51333;BME280;37417;48.118;11.734;2023-07-16T12:06:27;95497.72;;;36.86;34.54
51333;BME280;37417;48.118;11.734;2023-07-16T12:09:13;95496.06;;;37.54;32.60
51333;BME280;37417;48.118;11.734;2023-07-16T12:11:59;95500.75;;;38.84;32.10
51333;BME280;37417;48.118;11.734;2023-07-16T12:14:45;95497.47;;;39.64;30.42
51333;BME280;37417;48.118;11.734;2023-07-16T12:17:31;95487.19;;;42.19;27.25
51333;BME280;37417;48.118;11.734;2023-07-16T12:20:17;95488.63;;;42.38;25.50
51333;BME280;37417;48.118;11.734;2023-07-16T12:23:02;95485.41;;;41.52;27.00
51333;BME280;37417;48.118;11.734;2023-07-16T12:25:49;95479.91;;;40.52;28.63
51333;BME280;37417;48.118;11.734;2023-07-16T12:28:35;95483.25;;;39.37;29.89
51333;BME280;37417;48.118;11.734;2023-07-16T12:31:21;95485.47;;;38.05;32.24
51333;BME280;37417;48.118;11.734;2023-07-16T12:34:07;95479.50;;;37.13;33.67
51333;BME280;37417;48.118;11.734;2023-07-16T12:36:52;95476.38;;;36.42;35.16
51333;BME280;37417;48.118;11.734;2023-07-16T12:39:39;95479.09;;;36.03;35.47
51333;BME280;37417;48.118;11.734;2023-07-16T12:42:25;95477.69;;;35.74;36.65
51333;BME280;37417;48.118;11.734;2023-07-16T12:45:10;95480.91;;;35.80;36.13
51333;BME280;37417;48.118;11.734;2023-07-16T12:47:56;95486.78;;;34.52;37.14
51333;BME280;37417;48.118;11.734;2023-07-16T12:50:42;95486.78;;;35.63;37.43
51333;BME280;37417;48.118;11.734;2023-07-16T12:53:28;95476.31;;;37.07;34.02
51333;BME280;37417;48.118;11.734;2023-07-16T12:56:14;95472.13;;;37.66;33.47
51333;BME280;37417;48.118;11.734;2023-07-16T12:58:59;95473.94;;;37.85;32.89
51333;BME280;37417;48.118;11.734;2023-07-16T13:01:45;95473.72;;;37.41;32.77
51333;BME280;37417;48.118;11.734;2023-07-16T13:04:30;95477.75;;;34.32;37.61
51333;BME280;37417;48.118;11.734;2023-07-16T13:07:16;95482.44;;;34.19;37.61
51333;BME280;37417;48.118;11.734;2023-07-16T13:10:02;95490.41;;;31.87;41.03
51333;BME280;37417;48.118;11.734;2023-07-16T13:12:48;95480.53;;;32.45;42.33
51333;BME280;37417;48.118;11.734;2023-07-16T13:15:33;95483.22;;;32.45;42.59
51333;BME280;37417;48.118;11.734;2023-07-16T13:18:19;95479.78;;;31.40;43.34
51333;BME280;37417;48.118;11.734;2023-07-16T13:21:05;95482.91;;;30.92;46.76
51333;BME280;37417;48.118;11.734;2023-07-16T13:23:50;95483.78;;;31.34;45.82
51333;BME280;37417;48.118;11.734;2023-07-16T13:26:36;95476.72;;;31.71;44.13
51333;BME280;37417;48.118;11.734;2023-07-16T13:29:22;95476.97;;;31.99;43.29
51333;BME280;37417;48.118;11.734;2023-07-16T13:32:07;95480.78;;;32.31;44.66
51333;BME280;37417;48.118;11.734;2023-07-16T13:34:53;95475.16;;;32.70;42.83
51333;BME280;37417;48.118;11.734;2023-07-16T13:37:39;95473.47;;;32.32;42.01
51333;BME280;37417;48.118;11.734;2023-07-16T13:40:25;95476.44;;;32.72;42.46
51333;BME280;37417;48.118;11.734;2023-07-16T13:43:10;95473.19;;;33.80;39.49
51333;BME280;37417;48.118;11.734;2023-07-16T13:45:56;95472.16;;;33.57;41.55
51333;BME280;37417;48.118;11.734;2023-07-16T13:48:42;95469.94;;;32.98;40.88
51333;BME280;37417;48.118;11.734;2023-07-16T13:51:27;95470.00;;;32.77;41.70
51333;BME280;37417;48.118;11.734;2023-07-16T13:54:13;95465.75;;;34.17;40.75
51333;BME280;37417;48.118;11.734;2023-07-16T13:56:59;95458.88;;;35.11;38.64
51333;BME280;37417;48.118;11.734;2023-07-16T13:59:44;95456.47;;;36.84;35.85
51333;BME280;37417;48.118;11.734;2023-07-16T14:02:30;95462.31;;;38.22;32.78
51333;BME280;37417;48.118;11.734;2023-07-16T14:05:16;95462.28;;;37.85;33.43
51333;BME280;37417;48.118;11.734;2023-07-16T14:08:01;95473.22;;;34.36;37.77
51333;BME280;37417;48.118;11.734;2023-07-16T14:10:47;95466.72;;;31.51;42.96
51333;BME280;37417;48.118;11.734;2023-07-16T14:13:33;95478.97;;;29.99;47.34
51333;BME280;37417;48.118;11.734;2023-07-16T14:16:19;95473.16;;;30.61;46.33
51333;BME280;37417;48.118;11.734;2023-07-16T14:19:05;95475.50;;;29.64;50.40
51333;BME280;37417;48.118;11.734;2023-07-16T14:21:51;95468.81;;;30.31;48.92
51333;BME280;37417;48.118;11.734;2023-07-16T14:24:37;95478.22;;;30.71;48.56
51333;BME280;37417;48.118;11.734;2023-07-16T14:27:23;95474.63;;;29.29;50.38
51333;BME280;37417;48.118;11.734;2023-07-16T14:30:09;95465.94;;;28.83;54.19